Terminal Aerodrome Forecast
Issued by NWS San Angelo, TX

Home | Current Version | Previous Version | Text Only | Print | Product List | Glossary On
Versions: 1 2 3 4 5 6 7 8 9 10 11 12 13 14 15 16 17 18 19 20 21 22 23
000
FTUS44 KSJT 011100
TAFABI
TAF
KABI 011128Z 0112/0212 01007KT 2SM -FZDZ BR OVC003
      TEMPO 0112/0116 3SM BR OVC004
     FM011600 02004KT 4SM BR OVC004
     FM011800 03006KT 6SM BR OVC007
     FM020000 04007KT 4SM BR OVC004
     FM020500 04008KT 2SM -DZ BR OVC003
      TEMPO 0207/0211 1SM -FZDZ BR OVC002=

USA.gov is the U.S. government's official web portal to all federal, state and local government web resources and services.